createdAt,value
2023-09-12T11:31:06.750Z,12.35
2023-09-12T11:33:35.093Z,13.13
2023-09-12T11:36:04.954Z,12.83
2023-09-12T11:38:36.284Z,12.10
2023-09-12T11:41:04.081Z,11.23
2023-09-12T11:43:32.936Z,12.25
2023-09-12T11:46:00.816Z,11.87
2023-09-12T11:48:32.415Z,11.55
2023-09-12T11:51:02.559Z,11.50
2023-09-12T11:53:33.764Z,13.18
2023-09-12T11:56:02.101Z,13.40
2023-09-12T11:58:30.042Z,12.43
2023-09-12T12:00:59.056Z,12.38
2023-09-12T12:03:28.431Z,12.00
2023-09-12T12:05:58.528Z,13.43
2023-09-12T12:10:59.711Z,11.93
2023-09-12T12:13:28.761Z,12.70
2023-09-12T12:15:57.044Z,12.82
2023-09-12T12:18:25.170Z,13.45
2023-09-12T12:20:53.190Z,11.13
2023-09-12T12:23:22.446Z,11.93
2023-09-12T12:25:50.299Z,11.25
2023-09-12T12:28:18.618Z,12.38
2023-09-12T12:30:47.992Z,10.20
2023-09-12T12:34:12.786Z,9.20
2023-09-12T12:36:04.789Z,10.38
2023-09-12T12:38:37.437Z,8.38
2023-09-12T12:41:06.710Z,9.63
2023-09-12T12:43:34.589Z,8.80
2023-09-12T12:46:02.592Z,8.38
2023-09-12T12:48:34.152Z,8.90
2023-09-12T12:51:07.617Z,8.00
2023-09-12T12:56:19.845Z,7.00
2023-09-12T12:58:49.752Z,9.60
2023-09-12T13:01:17.948Z,7.75
2023-09-12T13:03:46.907Z,8.18
2023-09-12T13:07:49.695Z,7.07
2023-09-12T13:10:17.440Z,6.70
2023-09-12T13:14:35.137Z,8.65
2023-09-12T13:17:04.057Z,9.02
2023-09-12T13:19:32.704Z,9.02
2023-09-12T13:22:00.579Z,7.60
2023-09-12T13:24:29.221Z,7.50
2023-09-12T13:26:56.971Z,8.63
2023-09-12T13:29:24.742Z,8.23
2023-09-12T13:31:54.071Z,8.52
2023-09-12T13:34:22.051Z,9.00
2023-09-12T13:36:58.121Z,8.15
2023-09-12T13:39:33.986Z,7.85
2023-09-12T13:42:04.290Z,7.47
2023-09-12T13:44:32.067Z,7.22
2023-09-12T13:47:01.286Z,8.05
2023-09-12T13:49:29.262Z,7.93
2023-09-12T13:51:57.094Z,7.80
2023-09-12T13:54:24.955Z,6.95
2023-09-12T13:56:52.692Z,5.22
2023-09-12T13:59:21.692Z,7.40
2023-09-12T14:01:49.720Z,7.20
2023-09-12T14:04:19.262Z,6.60
2023-09-12T14:06:47.487Z,6.65
2023-09-12T14:09:20.964Z,6.45
2023-09-12T14:11:51.257Z,5.50
2023-09-12T14:14:20.872Z,4.22
2023-09-12T14:16:49.771Z,5.13
2023-09-12T14:19:20.712Z,4.90
2023-09-12T14:21:49.480Z,4.63
2023-09-12T14:24:19.100Z,5.10
2023-09-12T14:26:49.930Z,6.50
2023-09-12T14:29:17.932Z,4.68
2023-09-12T14:31:51.305Z,5.15
2023-09-12T14:34:20.836Z,6.75
2023-09-12T14:36:49.002Z,5.68
2023-09-12T14:39:18.319Z,4.67
2023-09-12T14:41:50.806Z,4.53
2023-09-12T14:44:18.755Z,4.57
2023-09-12T14:46:46.817Z,5.22
2023-09-12T14:49:15.127Z,5.97
2023-09-12T14:51:44.485Z,5.38
2023-09-12T14:54:12.296Z,5.47
2023-09-12T14:56:40.359Z,4.93
2023-09-12T14:59:08.200Z,5.05
2023-09-12T15:01:36.638Z,4.97
2023-09-12T15:04:04.719Z,6.05
2023-09-12T15:06:34.495Z,5.97
2023-09-12T15:09:03.968Z,5.75
2023-09-12T15:11:32.434Z,5.43
2023-09-12T15:14:00.347Z,5.30
2023-09-12T15:16:28.439Z,6.20
2023-09-12T15:18:56.361Z,5.63
2023-09-12T15:21:24.179Z,4.40
2023-09-12T15:23:51.957Z,4.45
2023-09-12T15:26:21.121Z,4.95
2023-09-12T15:28:49.025Z,5.05
2023-09-12T15:31:16.885Z,5.15
2023-09-12T15:33:45.033Z,4.68
2023-09-12T15:36:13.129Z,5.03
2023-09-12T15:38:40.928Z,4.80
2023-09-12T16:41:39.524Z,5.47
2023-09-12T16:44:07.936Z,6.22
2023-09-12T16:46:35.873Z,6.25
2023-09-12T16:49:03.981Z,7.22
2023-09-12T16:51:31.971Z,6.13
2023-09-12T16:53:59.852Z,6.28
2023-09-12T16:56:27.660Z,5.50
2023-09-12T16:58:56.824Z,5.13
2023-09-12T17:01:24.800Z,5.72
2023-09-12T17:04:00.293Z,5.15
2023-09-12T17:06:30.689Z,5.88
2023-09-12T17:09:00.618Z,5.47
2023-09-12T17:11:28.462Z,5.18
2023-09-12T17:13:57.808Z,5.70
2023-09-12T17:16:25.661Z,6.23
2023-09-12T17:18:53.761Z,4.72
2023-09-12T17:21:21.575Z,3.80
2023-09-12T17:23:49.287Z,3.92
2023-09-12T17:26:17.889Z,4.50
2023-09-12T17:28:45.716Z,5.60
2023-09-12T17:31:16.200Z,4.20
2023-09-12T17:33:44.318Z,5.32
2023-09-12T17:36:12.337Z,4.55
2023-09-12T17:38:40.020Z,4.30
2023-09-12T17:41:07.767Z,4.07
2023-09-12T17:43:37.762Z,5.20
2023-09-12T17:46:11.387Z,4.38
2023-09-12T17:48:42.427Z,4.60
2023-09-12T17:51:10.856Z,4.82
2023-09-12T17:53:38.697Z,4.60
2023-09-12T17:56:06.689Z,4.80
2023-09-12T17:58:34.690Z,6.97
2023-09-12T18:01:04.867Z,6.25
2023-09-12T18:03:38.712Z,6.53
2023-09-12T18:06:08.138Z,5.65
2023-09-12T18:08:36.013Z,5.47
2023-09-12T18:11:04.692Z,6.85
2023-09-12T18:13:32.569Z,7.40
2023-09-12T18:16:00.452Z,7.10
2023-09-12T18:18:28.383Z,7.45
2023-09-12T18:20:57.612Z,7.88
2023-09-12T18:23:26.875Z,7.67
2023-09-12T18:25:54.694Z,7.05
2023-09-12T18:28:39.979Z,9.52
2023-09-12T18:31:08.454Z,7.97
2023-09-12T18:33:36.505Z,7.45
2023-09-12T18:36:05.509Z,9.25
2023-09-12T18:38:35.837Z,8.35
2023-09-12T18:41:03.685Z,7.67
2023-09-12T18:43:31.508Z,7.30
2023-09-12T18:45:59.683Z,9.40
2023-09-12T18:48:27.541Z,7.43
2023-09-12T18:50:55.351Z,8.38
2023-09-12T18:53:23.169Z,8.32
2023-09-12T18:55:52.417Z,7.88
2023-09-12T18:58:20.224Z,8.52
2023-09-12T19:00:48.028Z,8.15
2023-09-12T19:03:16.547Z,9.40
2023-09-12T19:05:44.646Z,9.10
2023-09-12T19:08:12.504Z,7.95
2023-09-12T19:10:40.502Z,10.10
2023-09-12T19:13:10.459Z,9.48
2023-09-12T19:15:38.284Z,9.43
2023-09-12T19:18:08.143Z,8.93
2023-09-12T19:20:36.319Z,8.15
2023-09-12T19:23:04.858Z,9.88
2023-09-12T19:25:32.731Z,10.20
2023-09-12T19:28:01.937Z,10.77
2023-09-12T19:30:32.894Z,10.30
2023-09-12T19:33:01.537Z,9.32
2023-09-12T19:35:29.555Z,9.57
2023-09-12T19:38:02.491Z,11.35
2023-09-12T19:40:30.340Z,11.95
2023-09-12T19:42:58.156Z,12.63
2023-09-12T19:45:26.078Z,10.85
2023-09-12T19:48:01.653Z,11.17
2023-09-12T19:50:31.764Z,11.48
2023-09-12T19:52:59.857Z,10.63
2023-09-12T19:55:27.704Z,10.52
2023-09-12T19:57:55.598Z,12.48
2023-09-12T20:00:23.404Z,11.25
2023-09-12T20:02:51.225Z,12.15
2023-09-12T20:05:22.865Z,11.20
2023-09-12T20:07:51.768Z,13.35
2023-09-12T20:10:21.663Z,11.55
2023-09-12T20:12:50.348Z,11.13
2023-09-12T20:15:18.565Z,11.73
2023-09-12T20:17:49.559Z,11.57
2023-09-12T20:20:17.457Z,10.60
2023-09-12T20:22:46.936Z,10.35
2023-09-12T20:25:14.731Z,11.07
2023-09-12T20:27:42.514Z,11.05
2023-09-12T20:30:11.312Z,12.40
2023-09-12T20:32:52.006Z,12.82
2023-09-12T20:35:26.523Z,11.38
2023-09-12T20:37:57.576Z,12.18
2023-09-12T20:40:26.102Z,12.05
2023-09-12T20:42:54.180Z,11.52
2023-09-12T20:45:22.321Z,10.80
2023-09-12T20:47:52.429Z,11.75
2023-09-12T20:50:26.498Z,10.50
2023-09-12T20:52:58.784Z,11.73
2023-09-12T20:55:26.964Z,12.63
2023-09-12T20:57:55.155Z,12.10
2023-09-12T21:00:23.621Z,12.27
2023-09-12T21:02:51.841Z,13.20
2023-09-12T21:05:19.922Z,12.00
2023-09-12T21:07:48.076Z,11.27
2023-09-12T21:10:17.394Z,13.05
2023-09-12T21:12:45.474Z,12.73
2023-09-12T21:15:13.397Z,12.43
2023-09-12T21:17:41.232Z,13.02
2023-09-12T21:20:09.941Z,12.33
2023-09-12T21:22:38.270Z,11.30
2023-09-12T21:25:06.715Z,11.48
2023-09-12T21:27:35.934Z,11.73
2023-09-12T21:30:05.630Z,10.73
2023-09-12T21:32:32.762Z,10.27
2023-09-12T21:35:11.235Z,10.53
2023-09-12T21:37:39.075Z,12.83
2023-09-12T21:40:08.896Z,13.20
2023-09-12T21:42:38.215Z,11.23
2023-09-12T21:45:07.167Z,11.25
2023-09-12T21:47:39.392Z,11.77
2023-09-12T21:50:08.168Z,11.63
2023-09-12T21:52:36.170Z,11.23
2023-09-12T21:55:05.567Z,11.23
2023-09-12T21:57:34.041Z,11.47
2023-09-12T22:00:17.576Z,11.20
2023-09-12T22:02:46.141Z,12.50
2023-09-12T22:05:14.052Z,12.13
2023-09-12T22:07:41.803Z,12.00
2023-09-12T22:10:10.329Z,12.40
2023-09-12T22:12:38.404Z,13.02
2023-09-12T22:15:09.972Z,12.70
2023-09-12T22:17:38.044Z,11.13
2023-09-12T22:20:06.815Z,12.13
2023-09-12T22:22:35.001Z,12.25
2023-09-12T22:25:02.885Z,12.77
2023-09-12T22:27:30.680Z,11.65
2023-09-12T22:29:58.628Z,13.40
2023-09-12T22:32:27.896Z,13.05
2023-09-12T22:34:55.664Z,12.77
2023-09-12T22:37:23.449Z,12.18
2023-09-12T22:39:52.323Z,12.95
2023-09-12T22:42:20.134Z,12.27
2023-09-12T22:44:47.835Z,13.18
2023-09-12T22:47:15.808Z,12.77
2023-09-12T22:49:45.256Z,13.25
2023-09-12T22:52:13.368Z,13.85
2023-09-12T22:54:41.431Z,13.00
2023-09-12T22:57:09.295Z,12.75
2023-09-12T22:59:37.214Z,13.10
2023-09-12T23:02:05.351Z,13.30
2023-09-12T23:04:33.335Z,12.40
2023-09-12T23:07:03.530Z,13.50
2023-09-12T23:09:31.466Z,12.88
2023-09-12T23:11:59.313Z,12.93
2023-09-12T23:14:27.555Z,13.30
2023-09-12T23:16:55.477Z,13.30
2023-09-12T23:19:23.241Z,13.98
2023-09-12T23:21:51.488Z,14.43
2023-09-12T23:24:20.711Z,14.70
2023-09-12T23:26:50.056Z,13.70
2023-09-12T23:29:17.889Z,15.60
2023-09-12T23:31:45.851Z,13.50
2023-09-12T23:34:13.815Z,14.20
2023-09-12T23:36:41.571Z,13.77
2023-09-12T23:39:09.352Z,14.82
2023-09-12T23:41:38.905Z,12.73
2023-09-12T23:44:06.888Z,13.70
2023-09-12T23:46:34.858Z,14.35
2023-09-12T23:49:04.051Z,15.10
2023-09-12T23:51:31.881Z,14.32
2023-09-12T23:53:59.674Z,13.75
2023-09-12T23:56:27.410Z,15.25
2023-09-12T23:58:56.486Z,15.05
